Star Mariella — V7KK3 — position and weather

sailwx.info

Track history (hours):
 
Tides and Currents Weather Stations Pressure Air Temp Water Temp Dewpoint Dewpoint Depression Visibility Wind Speed Wind Dir Waves Ship Positions

Star Mariella

Last reported at 2015-Apr-02 21:19 UTC. Time now 2015-May-03 19:56 UTC.
Position N 22°23' E 119°52'.
Warning: this ship's position is 30 days out of date.

Length 229 m; draft 8.4 m.

Type: Ship. MMSI: 538002632.

Date/timePositionNaut miles runAvg speedWind from/ knotsBaromVisibWave heightAir tempDewpointWater temp
2015-Apr-02 21:19N 22°23' E 119°52'912.1
2015-Apr-02 20:32N 22°33' E 119°53'1111.6
2015-Apr-02 19:33N 22°44' E 119°54'1211.5
2015-Apr-02 18:33N 22°55' E 119°54'4710.7
2015-Apr-02 14:09N 23°43' E 119°57'5 8.4
2015-Apr-02 13:33N 23°48' E 119°58'11 8.5
2015-Apr-02 12:15N 23°58' E 120°02'7 8.6
2015-Apr-02 11:29N 24°04' E 120°05'3 2.5
2015-Apr-02 10:10N 24°07' E 120°06'0 0.0
2015-Apr-01 04:09N 24°07' E 120°06'0 0.1
2015-Apr-01 03:09N 24°07' E 120°06'  
2015-Mar-29 16:15N 24°07' E 120°06'0 0.0
2015-Mar-29 14:10N 24°07' E 120°06'0 0.0
2015-Mar-29 09:33N 24°07' E 120°06'0 0.0
2015-Mar-29 08:21N 24°07' E 120°06'0 0.0
2015-Mar-29 07:21N 24°07' E 120°06'0 0.0
2015-Mar-29 01:22N 24°07' E 120°06'0 0.0
2015-Mar-29 00:33N 24°07' E 120°06'0 0.0
2015-Mar-28 23:09N 24°07' E 120°06'0 0.1
2015-Mar-28 21:27N 24°07' E 120°06'0 0.1
2015-Mar-28 20:21N 24°07' E 120°06'0 0.0
2015-Mar-28 17:09N 24°07' E 120°06'0 0.1
2015-Mar-28 16:15N 24°07' E 120°06'0 0.1
2015-Mar-28 15:21N 24°07' E 120°06'0 0.1
2015-Mar-28 14:33N 24°07' E 120°06'0 0.0
2015-Mar-28 13:09N 24°07' E 120°06'0 0.1
2015-Mar-28 12:33N 24°07' E 120°06'0 0.0
2015-Mar-28 08:03N 24°07' E 120°06'  
Track history (hours):
 
Tides and Currents Weather Stations Pressure Air Temp Water Temp Dewpoint Dewpoint Depression Visibility Wind Speed Wind Dir Waves Ship Positions

Star Mariella

Last reported at 2015-Apr-02 21:19 UTC. Time now 2015-May-03 19:56 UTC.
Position N 22°23' E 119°52'.
Warning: this ship's position is 30 days out of date.

Length 229 m; draft 8.4 m.

Type: Ship. MMSI: 538002632.

Date/timePositionNaut miles runAvg speedWind from/ knotsBaromVisibWave heightAir tempDewpointWater temp
2015-Apr-02 21:19N 22°23' E 119°52'912.1
2015-Apr-02 20:32N 22°33' E 119°53'1111.6
2015-Apr-02 19:33N 22°44' E 119°54'1211.5
2015-Apr-02 18:33N 22°55' E 119°54'4710.7
2015-Apr-02 14:09N 23°43' E 119°57'5 8.4
2015-Apr-02 13:33N 23°48' E 119°58'11 8.5
2015-Apr-02 12:15N 23°58' E 120°02'7 8.6
2015-Apr-02 11:29N 24°04' E 120°05'3 2.5
2015-Apr-02 10:10N 24°07' E 120°06'0 0.0
2015-Apr-01 04:09N 24°07' E 120°06'0 0.1
2015-Apr-01 03:09N 24°07' E 120°06'  
2015-Mar-29 16:15N 24°07' E 120°06'0 0.0
2015-Mar-29 14:10N 24°07' E 120°06'0 0.0
2015-Mar-29 09:33N 24°07' E 120°06'0 0.0
2015-Mar-29 08:21N 24°07' E 120°06'0 0.0
2015-Mar-29 07:21N 24°07' E 120°06'0 0.0
2015-Mar-29 01:22N 24°07' E 120°06'0 0.0
2015-Mar-29 00:33N 24°07' E 120°06'0 0.0
2015-Mar-28 23:09N 24°07' E 120°06'0 0.1
2015-Mar-28 21:27N 24°07' E 120°06'0 0.1
2015-Mar-28 20:21N 24°07' E 120°06'0 0.0
2015-Mar-28 17:09N 24°07' E 120°06'0 0.1
2015-Mar-28 16:15N 24°07' E 120°06'0 0.1
2015-Mar-28 15:21N 24°07' E 120°06'0 0.1
2015-Mar-28 14:33N 24°07' E 120°06'0 0.0
2015-Mar-28 13:09N 24°07' E 120°06'0 0.1
2015-Mar-28 12:33N 24°07' E 120°06'0 0.0
2015-Mar-28 08:03N 24°07' E 120°06'  

Dump ship's entire track history